Джелюмкен

Карта отелей и гостиниц, располагающихся рядом с аэропортом Джелюмкен :



Джелюмкен Хабаровский край 48° 56' 25.9188" N, 134° 58' 50.88" E

Джелюмкен Хабаровский край 48° 56' 25.9188" N, 134° 58' 50.88" E
Код аэродрома ИКАО: 
HH57
Код аэродрома RU: 
ХХ57
Координаты: 
N48.94053° E134.98080°
Превышение над уровнем моря : 
63
Основная полоса: 
12/30
Курс магнитный: 
115,3/295,3
Длина основной ВПП: 
24
Ширина основной ВПП: 
24
Покрытие основной ВПП: 
Твёрдое
Тип: 
Вертодром
Освещение ВПП: 
По запросу
Класс аэродрома: 
Статус: 
Действующий
Принадлежность: 
ГА
Сайт: 
E-mail аэродрома: 
Страна: 
Россия
Регион: 
Хабаровский край
Город: 
Дополнительная информация: 
Оператор: нет данных.

Найти трансфер

С помощью этой формы Вы можете найти трансфер из аэропорта Джелюмкен в город, аэропорт или вокзал:

Карта места

Javascript is required to view this map.

Погода в аэропортах:

Авиационная погода в Краснодаре

Регион: 
Погода METAR: 
URKK 210400Z VRB01MPS 5000 BR OVC003 02/02 Q1016 R05R/19//65 TEMPO 1000 BR BKN001 RMK QBB100 OBST OBSC QFE759
Время наблюдения: 
2020-02-21T04:00:00Z
Температура C: 
2.0
Точка росы: 
2.0
Направление ветра: 
0
Скорость ветра: 
2
Метеорологическая видимость: 
3.11
Явления погоды: 
BR
Условия полета: 
LIFR
Аэропорт подробнее: 

Авиационная погода в Чернобаевке

Регион: 
Погода METAR: 
UKOH 210400Z 01003MPS 3400 BR NSC M03/M03 Q1021 R03/CLRD65 NOSIG
Время наблюдения: 
2020-02-21T04:00:00Z
Температура C: 
-3.0
Точка росы: 
-3.0
Направление ветра: 
10
Скорость ветра: 
6
Метеорологическая видимость: 
2.11
Явления погоды: 
BR
Условия полета: 
IFR
Аэропорт подробнее: 

Авиационная погода в Нальчике

Регион: 
Погода METAR: 
URMN 210400Z 03001MPS 0300 -DZ FG VV001 01/01 Q1015 R24/////// NOSIG RMK QBB040 MT OBSC OBST OBSC QFE725
Время наблюдения: 
2020-02-21T04:00:00Z
Температура C: 
1.0
Точка росы: 
1.0
Направление ветра: 
30
Скорость ветра: 
2
Метеорологическая видимость: 
0.19
Явления погоды: 
-DZ FG
Условия полета: 
LIFR
Аэропорт подробнее: 

Авиационная погода в Дашогузе

Регион: 
Погода METAR: 
UTAT 210400Z 21004KT 9999 -RA OVC100 05/01 Q1012 R08/19//60 NOSIG
Время наблюдения: 
2020-02-21T04:00:00Z
Температура C: 
5.0
Точка росы: 
1.0
Направление ветра: 
210
Скорость ветра: 
4
Метеорологическая видимость: 
6.21
Явления погоды: 
-RA
Условия полета: 
VFR